Time;durP1;ratioP1;P1;durP2;ratioP2;P2;SDS_P1;SDS_P2;PMS_P1;PMS_P2;Temp;Humidity;BMP_temperature;BMP_pressure;BME280_temperature;BME280_humidity;BME280_pressure;Samples;Min_cycle;Max_cycle;Signal;HPM_P1;HPM_P2
2021/05/18 00:00:42;;;;;;;8.32;1.60;;;;;;;13.31;80.30;93137.09;4872213;29;20855;-87
2021/05/18 00:03:11;;;;;;;1.63;1.33;;;;;;;13.11;80.96;93105.19;4882413;29;20143;-86
2021/05/18 00:05:40;;;;;;;2.80;1.30;;;;;;;13.30;81.05;93130.22;4877772;29;20143;-86
2021/05/18 00:08:09;;;;;;;4.72;2.47;;;;;;;13.10;80.59;93088.47;4871231;29;20051;-85
2021/05/18 00:13:30;;;;;;;2.17;1.20;;;;;;;13.11;80.59;93092.72;4889638;29;20162;-83
2021/05/18 00:16:07;;;;;;;7.88;2.10;;;;;;;13.09;80.95;93118.00;4891657;29;20044;-83
2021/05/18 00:18:34;;;;;;;2.10;1.10;;;;;;;12.89;81.10;93111.53;4889234;29;20548;-87
2021/05/18 00:21:00;;;;;;;1.95;1.02;;;;;;;13.12;81.55;93154.53;4887955;29;21082;-85
2021/05/18 00:23:26;;;;;;;3.50;1.48;;;;;;;13.17;81.74;93167.59;4869748;29;20684;-85
2021/05/18 00:26:10;;;;;;;4.00;2.38;;;;;;;12.99;82.37;93159.72;4889820;29;20141;-87
2021/05/18 00:28:40;;;;;;;8.43;1.42;;;;;;;13.06;82.43;93171.66;4890300;29;20048;-85
2021/05/18 00:31:07;;;;;;;6.85;2.00;;;;;;;12.96;82.47;93147.06;4879496;29;20435;-86
2021/05/18 00:33:33;;;;;;;4.15;1.50;;;;;;;13.15;82.20;93175.88;4869174;29;20036;-86
2021/05/18 00:36:07;;;;;;;11.48;3.92;;;;;;;13.23;81.34;93183.03;4889882;29;20039;-88
2021/05/18 00:38:32;;;;;;;11.68;3.38;;;;;;;13.18;80.24;93154.03;4894607;29;20076;-86
2021/05/18 00:40:59;;;;;;;6.07;3.13;;;;;;;13.43;79.40;93179.66;4879256;29;20040;-86
2021/05/18 00:43:24;;;;;;;1.45;1.35;;;;;;;13.53;78.18;93186.47;4889834;29;20190;-87
2021/05/18 00:45:57;;;;;;;7.00;3.17;;;;;;;13.59;76.98;93181.75;4889284;29;20048;-85
2021/05/18 00:48:29;;;;;;;4.35;2.63;;;;;;;13.73;76.94;93206.19;4889881;29;20040;-85
2021/05/18 00:51:06;;;;;;;3.80;1.80;;;;;;;13.59;77.92;93187.03;4889804;29;20044;-88
2021/05/18 00:53:32;;;;;;;4.57;2.17;;;;;;;13.78;79.21;93224.59;4891445;29;20691;-86
2021/05/18 00:58:58;;;;;;;9.68;3.08;;;;;;;13.51;81.58;93235.66;4881723;29;20049;-91
2021/05/18 01:01:24;;;;;;;7.57;3.95;;;;;;;13.33;81.23;93203.91;4885394;29;20044;-89
2021/05/18 01:04:03;;;;;;;4.97;3.40;;;;;;;13.65;81.38;93212.31;4830724;29;20265;-89
2021/05/18 01:06:33;;;;;;;4.80;1.95;;;;;;;13.45;80.59;93127.03;4844983;29;20428;-90
2021/05/18 01:09:31;;;;;;;5.30;3.45;;;;;;;13.51;81.18;93140.09;4881442;29;20124;-90
2021/05/18 01:12:16;;;;;;;3.55;1.90;;;;;;;13.68;79.82;93145.31;4852697;29;20140;-90
2021/05/18 01:17:29;;;;;;;3.58;1.52;;;;;;;13.66;78.50;93134.22;4886408;29;20649;-86
2021/05/18 01:20:21;;;;;;;4.03;2.10;;;;;;;13.80;79.46;93163.97;4880783;29;20059;-90
2021/05/18 01:22:50;;;;;;;9.98;2.40;;;;;;;13.85;80.02;93171.75;4885127;29;20055;-87
2021/05/18 01:25:29;;;;;;;3.80;2.22;;;;;;;13.88;79.66;93181.72;4877526;29;20158;-87
2021/05/18 01:28:15;;;;;;;2.20;2.00;;;;;;;13.92;80.34;93187.94;4888417;29;20064;-87
2021/05/18 01:30:50;;;;;;;2.40;2.20;;;;;;;13.69;80.78;93162.78;4865984;29;20050;-86
2021/05/18 01:33:17;;;;;;;5.90;2.53;;;;;;;13.55;81.05;93155.06;4867758;29;20548;-86
2021/05/18 01:35:42;;;;;;;10.82;4.95;;;;;;;13.87;81.07;93206.72;4882703;29;20039;-87
2021/05/18 01:38:11;;;;;;;7.78;3.70;;;;;;;13.70;80.74;93185.59;4880979;29;20107;-87
2021/05/18 01:43:14;;;;;;;3.70;2.30;;;;;;;13.33;80.43;93158.78;4893282;29;20044;-87
2021/05/18 01:48:35;;;;;;;9.63;4.60;;;;;;;13.23;80.43;93176.94;4850805;29;20127;-86
2021/05/18 01:51:04;;;;;;;4.38;2.75;;;;;;;13.39;80.59;93221.19;4877266;29;20131;-87
2021/05/18 01:53:30;;;;;;;6.80;3.47;;;;;;;13.20;80.75;93194.28;4897178;29;20031;-86
2021/05/18 01:58:50;;;;;;;4.70;2.10;;;;;;;13.34;81.56;93242.59;4831431;29;20509;-86
2021/05/18 02:01:21;;;;;;;3.30;2.10;;;;;;;13.43;81.53;93238.06;4881030;29;20463;-86
2021/05/18 02:03:49;;;;;;;3.65;2.65;;;;;;;13.60;79.11;93241.72;4866807;29;20044;-87
2021/05/18 02:06:18;;;;;;;10.82;5.10;;;;;;;13.19;78.98;93184.78;4910160;29;20500;-87
2021/05/18 02:08:49;;;;;;;1.80;1.70;;;;;;;13.39;78.47;93212.44;4900531;29;20055;-88
2021/05/18 02:11:16;;;;;;;7.00;3.05;;;;;;;13.33;77.89;93206.56;4892297;29;20017;-86
2021/05/18 02:13:46;;;;;;;5.82;3.38;;;;;;;13.30;78.36;93199.22;4910757;29;20054;-84
2021/05/18 02:16:42;;;;;;;11.88;5.13;;;;;;;13.17;78.50;93189.63;4911212;29;20322;-85
2021/05/18 02:24:42;;;;;;;12.15;5.13;;;;;;;13.60;78.90;93244.34;4908963;29;20951;-86
2021/05/18 02:27:08;;;;;;;4.72;2.95;;;;;;;13.79;78.12;93274.72;4889206;29;20079;-85
2021/05/18 02:29:33;;;;;;;8.57;5.97;;;;;;;13.80;78.47;93286.13;4915412;29;20070;-86
2021/05/18 02:32:06;;;;;;;6.75;4.55;;;;;;;13.64;78.64;93266.50;4908619;29;20098;-83
2021/05/18 02:34:32;;;;;;;3.85;3.50;;;;;;;13.84;79.14;93287.03;4911614;29;20079;-86
2021/05/18 02:37:03;;;;;;;6.32;4.28;;;;;;;13.57;78.77;93243.13;4884068;29;20052;-83
2021/05/18 02:39:29;;;;;;;4.15;3.85;;;;;;;13.94;77.95;93297.28;4877286;29;20637;-86
2021/05/18 02:41:57;;;;;;;4.50;4.10;;;;;;;13.85;78.54;93288.59;4870798;29;20044;-85
2021/05/18 02:44:36;;;;;;;5.63;3.97;;;;;;;13.70;78.37;93259.94;4912634;29;20028;-87
2021/05/18 02:49:55;;;;;;;7.15;6.07;;;;;;;13.78;78.43;93296.31;4910742;29;20466;-86
2021/05/18 02:52:24;;;;;;;7.28;6.57;;;;;;;13.74;79.00;93295.34;4909559;29;20027;-84
2021/05/18 02:54:52;;;;;;;7.53;6.65;;;;;;;13.82;78.90;93310.50;4892738;29;20051;-84
2021/05/18 02:57:34;;;;;;;7.63;6.90;;;;;;;13.49;78.99;93253.81;4897538;29;20811;-84
2021/05/18 03:00:05;;;;;;;8.00;7.20;;;;;;;13.64;79.33;93295.72;4911080;29;20040;-85
2021/05/18 03:02:31;;;;;;;8.95;7.22;;;;;;;13.82;79.57;93318.47;4908644;29;20114;-84
2021/05/18 03:04:59;;;;;;;8.88;7.43;;;;;;;13.89;78.83;93316.06;4889042;29;20426;-85
2021/05/18 03:07:25;;;;;;;25.85;17.05;;;;;;;13.96;78.43;93307.59;4891774;29;20296;-85
2021/05/18 03:09:51;;;;;;;17.77;13.95;;;;;;;13.79;78.38;93290.66;4890625;29;20410;-85
2021/05/18 03:12:16;;;;;;;10.50;8.10;;;;;;;13.98;78.07;93318.69;4875136;29;20050;-85
2021/05/18 03:14:42;;;;;;;10.93;9.90;;;;;;;13.86;78.25;93282.97;4892779;29;20028;-86
2021/05/18 03:17:10;;;;;;;8.40;7.38;;;;;;;14.05;78.02;93274.59;4878672;29;20557;-85
2021/05/18 03:19:38;;;;;;;9.10;8.00;;;;;;;14.28;77.76;93293.66;4892178;29;20052;-85
2021/05/18 03:22:06;;;;;;;9.15;8.23;;;;;;;14.48;78.38;93289.47;4891577;29;20048;-85
2021/05/18 03:24:32;;;;;;;8.98;8.07;;;;;;;14.89;77.48;93292.13;4889024;29;20044;-84
2021/05/18 03:26:57;;;;;;;7.03;6.50;;;;;;;15.35;75.25;93293.69;4881507;29;20095;-86
2021/05/18 03:29:30;;;;;;;7.22;6.63;;;;;;;15.67;73.18;93286.78;4884618;29;20037;-85
2021/05/18 03:34:40;;;;;;;6.80;5.68;;;;;;;16.48;68.30;93286.59;4892777;29;20497;-86
2021/05/18 03:37:15;;;;;;;6.00;5.35;;;;;;;16.81;65.51;93270.41;4877427;29;20044;-87
2021/05/18 03:39:44;;;;;;;5.30;4.80;;;;;;;16.98;65.37;93293.38;4891714;29;20037;-87
2021/05/18 03:42:20;;;;;;;6.20;5.68;;;;;;;16.84;64.93;93291.09;4893346;29;20051;-86
2021/05/18 04:12:05;;;;;;;2.28;1.70;;;;;;;18.84;53.83;93292.13;4859181;29;20584;-84
2021/05/18 04:17:18;;;;;;;2.10;1.83;;;;;;;18.95;52.69;93287.78;4892435;29;20039;-89
2021/05/18 04:19:51;;;;;;;4.00;1.40;;;;;;;18.94;52.33;93310.31;4895397;29;20059;-88
2021/05/18 04:38:48;;;;;;;3.33;2.35;;;;;;;17.38;57.04;93330.69;4895303;29;20117;-89
2021/05/18 04:41:27;;;;;;;4.38;2.47;;;;;;;17.23;57.55;93345.56;4875519;29;20044;-89
2021/05/18 04:52:09;;;;;;;4.60;2.20;;;;;;;16.68;59.78;93366.84;4876148;29;20092;-90
2021/05/18 05:00:19;;;;;;;2.28;2.08;;;;;;;16.55;59.75;93358.06;4887502;29;20691;-86
2021/05/18 05:03:07;;;;;;;3.47;2.20;;;;;;;16.36;59.26;93334.63;4880399;29;20403;-90
2021/05/18 05:08:34;;;;;;;2.80;1.52;;;;;;;16.51;58.84;93389.19;4890584;29;20427;-89
2021/05/18 05:16:10;;;;;;;3.22;1.80;;;;;;;16.75;60.28;93399.84;4880760;29;20151;-90
2021/05/18 05:18:38;;;;;;;2.10;1.90;;;;;;;16.83;60.02;93404.28;4864539;29;20135;-91
2021/05/18 05:21:32;;;;;;;3.03;2.03;;;;;;;16.61;59.31;93378.09;4879044;29;20520;-87
2021/05/18 05:24:00;;;;;;;5.00;1.60;;;;;;;16.92;58.39;93379.34;4860889;29;20095;-93
2021/05/18 05:26:38;;;;;;;2.47;1.90;;;;;;;17.34;56.70;93380.56;4876881;29;20021;-87
2021/05/18 05:29:15;;;;;;;2.67;1.60;;;;;;;17.68;56.83;93398.69;4873097;29;20040;-94
2021/05/18 05:32:01;;;;;;;1.95;1.70;;;;;;;17.82;56.55;93408.19;4809704;29;20474;-89
2021/05/18 05:34:42;;;;;;;1.45;1.27;;;;;;;17.74;53.62;93409.88;4841903;29;20048;-89
2021/05/18 05:37:13;;;;;;;2.85;1.63;;;;;;;17.61;55.47;93384.34;4887838;29;20122;-89
2021/05/18 05:39:48;;;;;;;2.75;1.58;;;;;;;17.84;54.89;93389.94;4891088;29;20076;-92
2021/05/18 05:42:15;;;;;;;1.48;1.38;;;;;;;18.50;54.02;93382.75;4847716;29;20840;-87
2021/05/18 05:44:54;;;;;;;2.88;1.10;;;;;;;20.03;49.14;93410.81;4861156;29;20029;-90
2021/05/18 05:47:22;;;;;;;1.85;0.82;;;;;;;21.32;47.48;93414.34;4840962;29;20044;-93
2021/05/18 05:49:55;;;;;;;4.50;1.67;;;;;;;22.03;44.01;93392.56;4870898;29;20064;-91
2021/05/18 05:52:36;;;;;;;;;;;;;;;;;;;;;
2021/05/18 05:55:11;;;;;;;2.13;0.70;;;;;;;23.63;39.73;93364.78;4884648;29;20059;-91
2021/05/18 05:57:45;;;;;;;;;;;;;;;25.09;38.43;93408.19;4856582;29;20620;-89
2021/05/18 06:00:12;;;;;;;2.75;0.70;;;;;;;25.62;36.09;93356.66;4845205;29;19920;-94
2021/05/18 06:02:47;;;;;;;4.30;0.70;;;;;;;26.52;35.02;93366.59;4886579;29;20084;-91
2021/05/18 06:05:18;;;;;;;1.15;0.45;;;;;;;27.01;32.50;93368.91;4892802;29;21569;-86
2021/05/18 06:07:46;;;;;;;2.05;0.57;;;;;;;26.77;33.18;93396.19;4865801;29;20077;-89
2021/05/18 06:10:19;;;;;;;4.07;0.70;;;;;;;25.37;34.69;93387.25;4879223;29;20045;-86
2021/05/18 06:29:36;;;;;;;0.63;0.50;;;;;;;25.89;35.52;93438.91;4864352;29;20079;-86
2021/05/18 06:35:01;;;;;;;1.13;0.65;;;;;;;31.37;28.07;93413.81;4890699;29;20047;-88
2021/05/18 06:37:50;;;;;;;0.82;0.50;;;;;;;31.31;25.81;93415.56;4895093;29;20059;-83
2021/05/18 06:43:08;;;;;;;0.38;0.32;;;;;;;31.93;25.86;93418.97;4891517;29;20081;-87
2021/05/18 06:46:02;;;;;;;0.63;0.47;;;;;;;32.44;25.43;93421.84;4872278;29;20048;-88
2021/05/18 06:48:27;;;;;;;1.58;0.38;;;;;;;33.25;23.80;93424.81;4866909;29;20036;-85
2021/05/18 06:50:56;;;;;;;1.35;0.40;;;;;;;33.05;24.06;93416.03;4848955;29;20569;-85
2021/05/18 06:53:25;;;;;;;2.30;0.40;;;;;;;33.43;24.15;93437.91;4891109;29;20028;-85
2021/05/18 06:55:54;;;;;;;0.85;0.40;;;;;;;33.22;23.10;93436.66;4893718;29;20040;-86
2021/05/18 07:01:11;;;;;;;1.05;0.30;;;;;;;33.69;22.72;93416.69;4893640;29;20044;-84
2021/05/18 07:03:43;;;;;;;2.55;0.50;;;;;;;34.28;21.92;93443.97;4862872;29;20048;-85
2021/05/18 07:06:29;;;;;;;5.50;0.40;;;;;;;34.10;21.43;93415.63;4881468;29;20096;-88
2021/05/18 07:08:58;;;;;;;0.70;0.57;;;;;;;33.99;21.91;93398.78;4891589;29;20039;-84
2021/05/18 07:11:25;;;;;;;0.28;0.28;;;;;;;33.23;22.62;93421.00;4892991;29;20095;-87
2021/05/18 07:13:51;;;;;;;1.80;0.20;;;;;;;33.55;21.26;93428.88;4889105;29;20528;-87
2021/05/18 07:16:16;;;;;;;0.73;0.40;;;;;;;33.51;21.95;93431.00;4888621;29;20044;-84
2021/05/18 07:18:42;;;;;;;0.98;0.40;;;;;;;34.06;22.02;93437.69;4890160;28;20098;-89
2021/05/18 07:21:09;;;;;;;2.00;0.30;;;;;;;34.54;21.49;93432.81;4890545;29;20044;-87
2021/05/18 07:23:35;;;;;;;1.52;0.40;;;;;;;33.37;21.49;93437.72;4891166;29;20032;-91
2021/05/18 07:26:01;;;;;;;1.45;0.50;;;;;;;33.48;21.87;93432.63;4892935;29;20048;-86
2021/05/18 07:28:31;;;;;;;2.17;0.40;;;;;;;34.06;21.45;93453.38;4894553;29;20485;-85
2021/05/18 07:31:03;;;;;;;0.60;0.20;;;;;;;34.74;21.27;93442.25;4907702;29;20061;-87
2021/05/18 07:33:32;;;;;;;2.67;0.47;;;;;;;35.38;21.08;93439.72;4911549;29;20042;-91
2021/05/18 07:36:16;;;;;;;0.90;0.30;;;;;;;34.79;20.23;93421.69;4910038;29;20035;-87
2021/05/18 07:38:43;;;;;;;1.65;0.20;;;;;;;34.69;20.32;93418.13;4903044;29;20050;-86
2021/05/18 07:41:09;;;;;;;0.22;0.20;;;;;;;34.53;21.52;93426.56;4906558;29;20118;-87
2021/05/18 07:43:35;;;;;;;0.60;0.30;;;;;;;35.21;19.86;93443.94;4905760;29;20110;-87
2021/05/18 07:46:03;;;;;;;2.45;0.30;;;;;;;35.18;20.55;93437.41;4912711;29;20059;-89
2021/05/18 07:48:39;;;;;;;3.30;0.40;;;;;;;34.75;20.01;93453.97;4892802;29;20040;-92
2021/05/18 07:59:34;;;;;;;0.40;0.30;;;;;;;29.39;26.51;93471.78;4832001;29;20589;-86
2021/05/18 08:02:22;;;;;;;0.60;0.30;;;;;;;29.36;25.61;93465.22;4883539;29;20681;-88
2021/05/18 08:07:35;;;;;;;4.15;0.50;;;;;;;28.11;27.78;93478.22;4892601;29;20401;-86
2021/05/18 08:10:12;;;;;;;0.73;0.35;;;;;;;28.15;28.19;93484.44;4893595;29;20055;-85
2021/05/18 08:12:44;;;;;;;0.82;0.32;;;;;;;28.89;27.46;93461.66;4873011;29;20158;-87
2021/05/18 08:17:46;;;;;;;2.63;0.40;;;;;;;30.74;25.77;93467.22;4893595;29;20024;-89
2021/05/18 08:59:15;;;;;;;1.33;0.32;;;;;;;29.70;24.44;93416.75;4818517;29;20053;-87
2021/05/18 10:35:54;;;;;;;2.78;0.50;;;;;;;24.02;33.16;93469.38;4894966;29;20037;-90
2021/05/18 10:38:46;;;;;;;0.40;0.30;;;;;;;23.82;31.34;93474.31;4897220;29;20036;-89
2021/05/18 10:41:15;;;;;;;7.47;0.82;;;;;;;23.46;32.54;93494.94;4897133;29;20119;-91
2021/05/18 10:43:42;;;;;;;5.45;0.40;;;;;;;23.49;33.19;93493.41;4881788;29;20686;-85
2021/05/18 10:46:18;;;;;;;2.08;0.40;;;;;;;23.59;33.88;93481.91;4894654;29;20043;-87
2021/05/18 10:48:44;;;;;;;0.88;0.50;;;;;;;23.20;34.07;93489.75;4872336;29;20421;-89
2021/05/18 10:51:30;;;;;;;2.22;0.60;;;;;;;22.70;34.02;93489.34;4892817;29;20048;-92
2021/05/18 10:54:16;;;;;;;3.25;0.60;;;;;;;22.16;34.34;93489.94;4864513;29;20359;-86
2021/05/18 10:57:12;;;;;;;0.55;0.40;;;;;;;21.85;35.51;93487.63;4894305;29;20024;-88
2021/05/18 10:59:59;;;;;;;2.47;0.60;;;;;;;21.61;36.40;93499.59;4889206;29;20063;-92
2021/05/18 11:02:31;;;;;;;2.83;0.50;;;;;;;21.51;37.75;93497.56;4891019;29;20130;-84
2021/05/18 11:04:57;;;;;;;2.72;0.50;;;;;;;21.66;38.19;93493.91;4898696;29;20056;-88
2021/05/18 11:07:52;;;;;;;1.88;0.65;;;;;;;21.83;37.25;93481.84;4911979;29;20350;-87
2021/05/18 11:10:20;;;;;;;4.50;0.57;;;;;;;21.79;36.95;93481.81;4893049;29;20047;-89
2021/05/18 11:12:48;;;;;;;2.85;0.60;;;;;;;21.78;37.22;93480.25;4908506;29;20071;-87
2021/05/18 11:15:25;;;;;;;0.63;0.60;;;;;;;21.67;37.28;93492.78;4900258;29;20043;-85
2021/05/18 11:17:53;;;;;;;0.95;0.55;;;;;;;21.49;36.47;93481.81;4910335;29;20099;-88
2021/05/18 11:26:07;;;;;;;0.82;0.40;;;;;;;21.71;35.31;93474.78;4915064;29;20050;-84
2021/05/18 11:28:52;;;;;;;14.93;0.88;;;;;;;21.94;35.12;93464.69;4909295;29;20141;-89
2021/05/18 11:31:24;;;;;;;4.03;0.40;;;;;;;22.02;35.21;93474.41;4910789;29;20044;-87
2021/05/18 11:34:03;;;;;;;0.55;0.38;;;;;;;21.96;35.33;93465.13;4895745;29;20221;-86
2021/05/18 11:36:41;;;;;;;1.00;0.50;;;;;;;22.04;34.32;93476.72;4903118;29;20115;-93
2021/05/18 11:39:10;;;;;;;2.25;0.30;;;;;;;22.03;32.88;93470.59;4901140;29;20167;-85
2021/05/18 11:41:40;;;;;;;1.30;0.60;;;;;;;21.78;32.83;93474.09;4914021;29;20238;-84
2021/05/18 11:44:11;;;;;;;2.15;0.60;;;;;;;21.94;33.40;93477.41;4890522;29;20132;-84
2021/05/18 11:46:45;;;;;;;1.70;0.70;;;;;;;21.75;34.07;93464.81;4891894;29;20048;-88
2021/05/18 11:49:12;;;;;;;;;;;;;;;21.99;34.89;93464.38;4910443;29;20331;-89
2021/05/18 11:51:47;;;;;;;3.38;0.40;;;;;;;21.59;34.44;93451.59;4910483;29;19926;-85
2021/05/18 11:54:16;;;;;;;4.95;0.50;;;;;;;21.58;32.75;93454.63;4878263;29;20470;-85
2021/05/18 11:56:42;;;;;;;1.42;0.40;;;;;;;21.82;34.26;93453.38;4910374;29;20054;-82
2021/05/18 11:59:18;;;;;;;5.75;0.50;;;;;;;21.87;32.17;93459.22;4906964;29;20032;-89
2021/05/18 12:01:43;;;;;;;2.38;0.50;;;;;;;21.95;32.53;93471.63;4911596;29;20055;-89
2021/05/18 12:04:12;;;;;;;1.60;0.55;;;;;;;21.88;32.31;93466.16;4910159;29;20048;-86
2021/05/18 12:06:41;;;;;;;2.95;0.50;;;;;;;22.16;32.12;93473.00;4908795;29;20134;-90
2021/05/18 12:09:13;;;;;;;0.63;0.47;;;;;;;22.28;32.36;93467.38;4896383;29;20747;-83
2021/05/18 12:11:39;;;;;;;0.80;0.40;;;;;;;22.03;32.21;93451.75;4900739;29;20114;-85
2021/05/18 12:14:11;;;;;;;2.00;0.40;;;;;;;22.09;31.32;93478.34;4910002;29;20058;-83
2021/05/18 12:16:43;;;;;;;0.30;0.30;;;;;;;22.41;33.34;93477.50;4895123;29;20047;-85
2021/05/18 12:19:14;;;;;;;3.78;0.40;;;;;;;22.47;31.73;93477.97;4906482;29;20040;-89
2021/05/18 12:21:43;;;;;;;0.40;0.20;;;;;;;22.12;31.61;93462.22;4912464;29;20482;-84
2021/05/18 12:24:26;;;;;;;0.82;0.40;;;;;;;22.00;32.10;93471.31;4892941;29;20055;-88
2021/05/18 12:27:02;;;;;;;3.70;1.27;;;;;;;21.63;32.02;93473.16;4907209;29;20128;-88
2021/05/18 12:29:37;;;;;;;0.68;0.20;;;;;;;21.38;32.71;93474.72;4914968;29;20016;-86
2021/05/18 12:32:21;;;;;;;;;;;;;;;21.46;32.15;93473.69;4912002;29;20875;-84
2021/05/18 12:34:52;;;;;;;1.95;0.30;;;;;;;21.62;32.14;93452.75;4913496;29;19979;-83
2021/05/18 12:37:29;;;;;;;0.35;0.30;;;;;;;21.45;31.05;93458.72;4909915;29;20039;-87
2021/05/18 12:39:55;;;;;;;0.45;0.30;;;;;;;21.32;30.74;93457.34;4910731;29;20055;-89
2021/05/18 12:42:29;;;;;;;0.22;0.20;;;;;;;21.35;32.58;93462.03;4912622;29;20580;-86
2021/05/18 12:45:03;;;;;;;0.70;0.50;;;;;;;21.45;32.00;93472.91;4910134;29;20042;-86
2021/05/18 12:47:38;;;;;;;2.65;0.43;;;;;;;21.64;31.84;93463.16;4912980;29;20036;-86
2021/05/18 12:50:08;;;;;;;;;;;;;;;21.84;31.02;93476.09;4895421;29;20038;-86
2021/05/18 12:52:45;;;;;;;2.10;0.40;;;;;;;21.96;31.32;93475.09;4894190;29;20064;-88
2021/05/18 12:55:23;;;;;;;0.30;0.20;;;;;;;22.08;32.18;93482.16;4909630;29;20047;-88
2021/05/18 12:57:59;;;;;;;0.35;0.20;;;;;;;21.99;30.43;93479.75;4914114;29;20052;-89
2021/05/18 13:00:26;;;;;;;4.38;0.40;;;;;;;21.70;31.42;93465.16;4899582;29;20044;-88
2021/05/18 13:02:54;;;;;;;0.30;0.30;;;;;;;21.69;31.02;93476.28;4905094;29;20063;-88
2021/05/18 13:05:39;;;;;;;1.05;0.52;;;;;;;21.64;30.14;93430.91;4918351;29;20497;-85
2021/05/18 13:08:16;;;;;;;2.53;0.30;;;;;;;22.01;31.78;93467.47;4910356;29;20096;-85
2021/05/18 13:10:48;;;;;;;39.55;9.48;;;;;;;22.00;31.11;93465.94;4914548;29;20650;-84
2021/05/18 13:13:13;;;;;;;1.70;0.43;;;;;;;22.07;30.60;93459.84;4913565;29;20046;-86
2021/05/18 13:15:39;;;;;;;3.42;0.40;;;;;;;22.09;30.92;93472.94;4909455;29;20477;-86
2021/05/18 13:18:07;;;;;;;2.05;0.40;;;;;;;22.14;30.46;93465.28;4913769;29;20047;-84
2021/05/18 13:20:54;;;;;;;0.68;0.40;;;;;;;22.16;30.69;93468.41;4915244;29;20027;-82
2021/05/18 13:28:31;;;;;;;4.95;0.40;;;;;;;22.15;30.90;93468.75;4911599;29;20059;-87
2021/05/18 13:30:57;;;;;;;0.90;0.40;;;;;;;22.16;30.23;93454.94;4915240;29;20047;-87
2021/05/18 13:33:25;;;;;;;6.47;0.80;;;;;;;22.39;31.00;93460.16;4906966;28;20079;-92
2021/05/18 13:35:54;;;;;;;0.30;0.30;;;;;;;22.61;30.89;93456.53;4916490;29;20484;-83
2021/05/18 13:38:19;;;;;;;1.83;0.40;;;;;;;22.48;29.52;93454.50;4910396;29;20031;-87
2021/05/18 13:40:45;;;;;;;0.95;0.40;;;;;;;22.46;29.09;93452.16;4910937;29;20079;-84
2021/05/18 13:43:10;;;;;;;8.50;0.50;;;;;;;22.35;28.24;93441.28;4911922;29;20424;-87
2021/05/18 13:45:36;;;;;;;1.33;0.30;;;;;;;22.43;29.98;93463.69;4914096;29;20500;-84
2021/05/18 13:48:02;;;;;;;1.95;0.35;;;;;;;22.48;30.84;93464.09;4908393;29;20047;-83
2021/05/18 13:50:28;;;;;;;1.70;0.40;;;;;;;22.56;31.15;93473.03;4913494;29;20028;-90
2021/05/18 13:52:57;;;;;;;0.75;0.30;;;;;;;22.63;29.54;93465.00;4898063;29;20042;-89
2021/05/18 13:55:22;;;;;;;2.85;0.70;;;;;;;22.80;31.57;93469.81;4909903;29;20171;-85
2021/05/18 13:57:48;;;;;;;0.75;0.60;;;;;;;22.93;32.04;93478.38;4890441;29;20043;-88
2021/05/18 14:00:16;;;;;;;2.15;0.70;;;;;;;23.07;31.76;93472.31;4909257;28;20480;-89
2021/05/18 14:02:43;;;;;;;2.05;1.05;;;;;;;23.12;32.42;93463.88;4907992;29;20063;-85
2021/05/18 14:05:20;;;;;;;6.47;1.35;;;;;;;22.79;31.21;93457.47;4896150;29;20096;-87
2021/05/18 14:08:22;;;;;;;2.47;1.20;;;;;;;22.57;32.20;93454.97;4897396;29;20044;-84
2021/05/18 14:10:50;;;;;;;1.52;0.50;;;;;;;22.56;32.52;93475.72;4912523;29;20244;-86
2021/05/18 14:13:15;;;;;;;3.42;0.50;;;;;;;22.41;32.92;93464.06;4912818;29;20039;-86
2021/05/18 14:15:42;;;;;;;5.95;1.77;;;;;;;22.31;33.05;93461.25;4895105;29;20100;-84
2021/05/18 14:18:13;;;;;;;3.75;1.10;;;;;;;22.21;31.83;93475.38;4903174;29;20070;-82
2021/05/18 14:20:40;;;;;;;2.88;0.80;;;;;;;22.08;32.18;93472.19;4897834;29;20126;-85
2021/05/18 14:23:06;;;;;;;2.53;0.73;;;;;;;22.14;33.68;93467.25;4909393;29;20485;-86
2021/05/18 14:25:32;;;;;;;2.00;0.40;;;;;;;22.15;32.25;93476.84;4893482;29;20115;-85
2021/05/18 14:27:58;;;;;;;2.67;0.43;;;;;;;22.04;32.23;93482.88;4911901;29;20450;-88
2021/05/18 14:30:24;;;;;;;3.85;0.60;;;;;;;22.06;33.87;93468.28;4902252;29;20111;-88
2021/05/18 14:32:49;;;;;;;3.15;0.50;;;;;;;22.06;32.29;93468.28;4909992;29;20080;-86
2021/05/18 14:35:15;;;;;;;1.17;0.40;;;;;;;22.18;32.14;93481.50;4914482;29;20061;-87
2021/05/18 14:37:42;;;;;;;0.90;0.40;;;;;;;22.06;31.41;93468.28;4887920;28;20067;-88
2021/05/18 14:45:16;;;;;;;2.83;0.60;;;;;;;21.82;31.61;93478.38;4912053;29;20048;-86
2021/05/18 14:48:06;;;;;;;0.80;0.40;;;;;;;21.67;33.39;93439.00;4911032;29;20027;-87
2021/05/18 14:56:06;;;;;;;2.28;0.43;;;;;;;21.95;33.15;93473.53;4914349;29;20143;-88
2021/05/18 14:58:31;;;;;;;6.13;0.40;;;;;;;21.97;33.60;93469.34;4896406;29;20048;-88
2021/05/18 15:00:57;;;;;;;0.60;0.40;;;;;;;21.96;33.66;93462.44;4909052;29;20115;-88
2021/05/18 15:03:22;;;;;;;1.52;0.40;;;;;;;21.85;32.06;93458.81;4908219;29;20048;-86
2021/05/18 15:05:48;;;;;;;3.72;0.73;;;;;;;21.83;32.22;93465.69;4913017;29;20044;-88
2021/05/18 15:08:13;;;;;;;0.52;0.30;;;;;;;21.72;31.03;93465.56;4912130;29;20027;-87
2021/05/18 15:10:40;;;;;;;2.25;0.30;;;;;;;21.77;31.27;93476.00;4902967;29;20405;-88
2021/05/18 15:13:09;;;;;;;0.68;0.40;;;;;;;21.68;31.87;93470.13;4909987;29;20044;-89
2021/05/18 15:15:34;;;;;;;0.50;0.30;;;;;;;21.68;31.75;93467.44;4914432;29;20576;-89
2021/05/18 15:18:00;;;;;;;1.80;0.40;;;;;;;21.62;31.03;93466.22;4909475;28;20056;-87
2021/05/18 15:20:27;;;;;;;2.15;0.40;;;;;;;21.68;31.91;93463.97;4894575;29;20035;-89
2021/05/18 15:22:53;;;;;;;3.13;0.43;;;;;;;21.71;31.85;93469.38;4890151;29;20067;-85
2021/05/18 15:25:22;;;;;;;1.45;0.30;;;;;;;21.74;31.01;93452.53;4910501;29;20153;-89
2021/05/18 15:27:48;;;;;;;0.70;0.50;;;;;;;21.72;31.92;93462.88;4896535;29;20047;-87
2021/05/18 15:30:16;;;;;;;2.42;0.77;;;;;;;21.74;31.28;93468.69;4903485;29;20052;-85
2021/05/18 15:32:42;;;;;;;2.13;0.20;;;;;;;21.72;31.04;93470.16;4895828;29;20445;-87
2021/05/18 15:35:08;;;;;;;0.40;0.40;;;;;;;21.63;31.18;93467.75;4902365;29;20028;-90
2021/05/18 15:37:35;;;;;;;2.28;0.30;;;;;;;21.42;30.90;93473.63;4907711;29;20043;-87
2021/05/18 15:40:01;;;;;;;1.83;0.70;;;;;;;21.33;31.38;93448.94;4904936;29;20044;-89
2021/05/18 15:42:26;;;;;;;1.17;0.60;;;;;;;21.44;31.37;93470.59;4881653;29;20596;-88
2021/05/18 15:44:52;;;;;;;1.80;0.40;;;;;;;21.44;31.89;93478.66;4908770;29;20036;-85
2021/05/18 15:47:18;;;;;;;4.13;1.08;;;;;;;21.55;31.75;93468.81;4909822;29;20343;-85
2021/05/18 15:49:43;;;;;;;1.80;0.40;;;;;;;21.47;32.27;93462.56;4909980;29;20095;-91
2021/05/18 15:52:09;;;;;;;2.22;0.50;;;;;;;21.46;32.53;93455.63;4909926;29;20036;-88
2021/05/18 15:54:37;;;;;;;1.17;0.40;;;;;;;21.37;32.16;93448.97;4912421;29;20048;-85
2021/05/18 15:57:04;;;;;;;0.55;0.47;;;;;;;21.37;32.45;93478.53;4913729;29;20052;-84
2021/05/18 15:59:30;;;;;;;2.30;0.40;;;;;;;21.34;31.49;93476.59;4897519;29;20028;-89
2021/05/18 16:01:55;;;;;;;2.92;0.65;;;;;;;21.25;32.68;93460.75;4913305;29;20079;-88
2021/05/18 16:04:23;;;;;;;0.88;0.50;;;;;;;21.28;32.31;93472.66;4910047;29;20051;-85
2021/05/18 16:06:48;;;;;;;0.50;0.50;;;;;;;21.20;32.28;93479.88;4911649;29;20896;-87
2021/05/18 16:09:14;;;;;;;2.00;0.57;;;;;;;21.08;32.24;93462.00;4913501;28;20047;-85
2021/05/18 16:11:41;;;;;;;0.32;0.30;;;;;;;21.12;33.60;93470.88;4897786;29;20028;-87
2021/05/18 16:14:10;;;;;;;4.35;0.55;;;;;;;21.14;33.19;93474.03;4913190;29;20024;-86
2021/05/18 16:16:36;;;;;;;1.63;0.50;;;;;;;21.05;32.69;93470.78;4912782;29;20059;-87
2021/05/18 16:19:02;;;;;;;2.67;0.40;;;;;;;21.09;34.01;93468.16;4911430;29;20540;-87
2021/05/18 16:21:28;;;;;;;4.47;0.60;;;;;;;20.96;33.27;93478.34;4911591;29;20056;-88
2021/05/18 16:23:58;;;;;;;2.53;0.60;;;;;;;20.92;33.88;93465.97;4912201;29;20086;-89
2021/05/18 16:26:26;;;;;;;2.38;0.40;;;;;;;20.91;33.82;93469.81;4898168;29;20038;-91
2021/05/18 16:28:52;;;;;;;1.15;0.90;;;;;;;20.77;34.69;93446.16;4904803;29;20059;-84
2021/05/18 16:31:19;;;;;;;1.58;0.80;;;;;;;20.82;34.16;93466.59;4912126;29;20111;-86
2021/05/18 16:33:45;;;;;;;0.85;0.80;;;;;;;20.77;34.26;93463.06;4911676;29;20505;-85
2021/05/18 16:36:13;;;;;;;0.50;0.40;;;;;;;20.70;34.41;93462.97;4909848;29;20103;-89
2021/05/18 16:38:38;;;;;;;4.65;0.70;;;;;;;20.66;35.26;93456.75;4911503;29;20047;-85
2021/05/18 16:41:05;;;;;;;1.58;0.50;;;;;;;20.67;34.86;93462.91;4911702;29;21148;-88